Hauptseite
METAR-TAF:

METAR-TAF

Flughäfen :

Laupheim, Deutschland

Flugplatz Laupheim

Breite: 48-13N, Länge: 009-55E, Höhe: 538 m

Beobachtung

Neuester Wetterbericht von vor 36 Minuten, um 01:20 UTC
Wind 2 kt aus Südwest
Temperatur 8°C
Luftfeuchtigkeit 93%
Luftdruck 1026 hPa
Sichtweite: 7000 m
Flacher Nebel

METAR: ETHL 170120Z 22002KT 7000 MIFG 08/07 Q1026 WHT

Zeit: 03:56 (01:56 UTC)

Prognose

Neuester Wetterbericht von vor 9 Stunden und 41 Minuten, um 16:15 UTC
Gültige Prognose vom 16 um 18 UTC bis 17 um 02 UTC
Wind 3 kt aus unterschiedlichen Richtungen
Sichtweite 10 km oder mehr
Himmel klar

TAF: ETHL 161615Z 1618/1702 VRB03KT 9999 NSW SKC

Wetterbeobachtungen und Prognosen von mehr als 4000 Flughäfen (METAR und TAF Bericht).

Die verfügbaren Stationen werden durch gelbe und rote Markierungen auf der Karte dargestellt.

Führen Sie die Maus auf sie, um den Namen der Station zu sehen.

Darauf klicken, um die Beobachtung von Wetterbeobachtungen und Prognosen zu sehen.

Um die Karte zu ändern : klicken Sie auf den grünen Tasten mit einem schwarzen Kreuz Zum Vergrößern, auf den grünen Button mit einem Gedankenstrich zu verkleinern, oder auf die grünen Pfeile für benachbarte Karten.


METAR-TAF: